Time;durP1;ratioP1;P1;durP2;ratioP2;P2;SDS_P1;SDS_P2;PMS_P1;PMS_P2;Temp;Humidity;BMP_temperature;BMP_pressure;BME280_temperature;BME280_humidity;BME280_pressure;Samples;Min_cycle;Max_cycle;Signal;HPM_P1;HPM_P2
2022/12/13 00:02:10;;;;;;;304.17;176.02;;;-3.50;1.00;;;;;;6134689;23;20101;-80
2022/12/13 00:04:38;;;;;;;329.98;179.30;;;-3.50;1.00;;;;;;6134070;23;20513;-79
2022/12/13 00:07:06;;;;;;;391.15;213.57;;;-3.50;99.90;;;;;;6133932;23;20026;-78
2022/12/13 00:09:34;;;;;;;390.98;221.85;;;-3.50;1.00;;;;;;6133585;23;20026;-78
2022/12/13 00:12:01;;;;;;;393.77;223.88;;;-3.60;1.00;;;;;;6133680;23;20073;-80
2022/12/13 00:14:28;;;;;;;381.42;217.48;;;-3.60;1.00;;;;;;6133531;23;20339;-80
2022/12/13 00:16:56;;;;;;;355.40;201.85;;;-3.60;99.90;;;;;;6133367;23;20033;-77
2022/12/13 00:19:23;;;;;;;343.38;192.90;;;-3.60;1.00;;;;;;6134763;23;20022;-80
2022/12/13 00:21:53;;;;;;;306.65;172.80;;;-3.60;1.00;;;;;;6137345;23;20020;-80
2022/12/13 00:24:20;;;;;;;287.15;164.43;;;-3.70;1.00;;;;;;6137403;23;20041;-79
2022/12/13 00:26:47;;;;;;;279.65;158.70;;;-3.70;1.00;;;;;;6136578;23;20041;-77
2022/12/13 00:29:15;;;;;;;285.20;162.98;;;-3.70;1.00;;;;;;6133806;23;20014;-78
2022/12/13 00:31:42;;;;;;;289.92;164.20;;;-3.80;1.00;;;;;;6133279;23;20025;-78
2022/12/13 00:34:10;;;;;;;265.77;153.93;;;-3.80;1.00;;;;;;6133486;23;20014;-79
2022/12/13 00:36:37;;;;;;;279.88;157.30;;;-3.80;46.70;;;;;;6133134;23;20024;-79
2022/12/13 00:39:06;;;;;;;273.42;158.00;;;-3.80;1.00;;;;;;6097382;23;20076;-79
2022/12/13 00:41:36;;;;;;;267.52;149.45;;;-3.80;1.00;;;;;;6133466;23;20022;-79
2022/12/13 00:44:05;;;;;;;249.73;143.10;;;-3.90;99.90;;;;;;6133447;23;20029;-77
2022/12/13 00:46:32;;;;;;;219.15;123.30;;;-4.00;99.90;;;;;;6133158;23;20042;-79
2022/12/13 00:49:01;;;;;;;219.35;122.55;;;-4.00;1.00;;;;;;6135532;23;20534;-78
2022/12/13 00:51:30;;;;;;;211.13;121.03;;;-4.00;99.90;;;;;;6135818;23;20057;-78
2022/12/13 00:53:58;;;;;;;210.65;118.43;;;-4.10;1.00;;;;;;6133866;23;20423;-77
2022/12/13 00:56:29;;;;;;;201.05;117.20;;;-4.10;1.00;;;;;;6134643;23;20014;-79
2022/12/13 00:58:57;;;;;;;198.38;115.72;;;-4.20;1.00;;;;;;6134629;23;20088;-79
2022/12/13 01:01:26;;;;;;;204.80;120.13;;;-4.20;99.90;;;;;;6099255;23;20487;-79
2022/12/13 01:03:55;;;;;;;207.73;121.15;;;-4.20;99.90;;;;;;6134850;23;20022;-80
2022/12/13 01:06:29;;;;;;;208.68;120.68;;;-4.10;99.90;;;;;;6134415;23;20018;-79
2022/12/13 01:08:57;;;;;;;249.60;143.38;;;-4.10;1.00;;;;;;6134834;23;20022;-78
2022/12/13 01:11:26;;;;;;;234.73;137.20;;;-4.10;1.00;;;;;;6134809;23;20010;-79
2022/12/13 01:13:54;;;;;;;234.48;135.73;;;-4.10;99.90;;;;;;6134842;23;20053;-78
2022/12/13 01:16:21;;;;;;;211.27;125.35;;;-4.20;1.00;;;;;;6134421;23;20014;-78
2022/12/13 01:18:49;;;;;;;205.32;124.38;;;-4.20;1.00;;;;;;6134372;23;20017;-78
2022/12/13 01:21:18;;;;;;;214.20;124.65;;;-4.10;1.00;;;;;;6134686;23;20040;-78
2022/12/13 01:23:46;;;;;;;208.02;120.93;;;-4.10;99.90;;;;;;6134943;23;20018;-79
2022/12/13 01:26:17;;;;;;;211.57;123.40;;;-4.20;99.90;;;;;;6134640;23;20053;-79
2022/12/13 01:28:47;;;;;;;216.90;128.82;;;-4.10;99.90;;;;;;6135422;23;20018;-78
2022/12/13 01:31:16;;;;;;;237.23;134.02;;;-4.10;1.00;;;;;;6135199;23;20097;-79
2022/12/13 01:33:44;;;;;;;233.20;134.82;;;-4.10;1.00;;;;;;6135365;23;20017;-79
2022/12/13 01:36:13;;;;;;;212.32;123.50;;;-4.10;64.90;;;;;;6102181;23;20025;-77
2022/12/13 01:38:41;;;;;;;204.57;119.63;;;-4.10;1.00;;;;;;6114922;23;20444;-77
2022/12/13 01:41:13;;;;;;;188.65;112.53;;;-4.10;1.00;;;;;;6135162;23;20504;-80
2022/12/13 01:43:55;;;;;;;161.30;96.68;;;-4.10;1.00;;;;;;6137043;23;20010;-79
2022/12/13 01:46:22;;;;;;;153.15;91.45;;;-4.00;1.00;;;;;;6141270;23;20014;-80
2022/12/13 01:48:57;;;;;;;153.30;92.70;;;-4.10;99.90;;;;;;6136673;23;20017;-80
2022/12/13 01:51:30;;;;;;;134.95;81.22;;;-4.10;99.90;;;;;;6135472;23;20016;-78
2022/12/13 01:54:01;;;;;;;134.13;80.97;;;-4.10;99.90;;;;;;6099412;23;20018;-79
2022/12/13 01:56:32;;;;;;;131.80;82.35;;;-4.10;99.90;;;;;;6138558;23;20014;-81
2022/12/13 01:59:02;;;;;;;126.50;74.43;;;-4.10;99.90;;;;;;6141870;23;20028;-78
2022/12/13 02:01:30;;;;;;;123.63;75.97;;;-4.10;1.00;;;;;;6103521;23;20572;-80
2022/12/13 02:03:57;;;;;;;125.68;77.97;;;-4.00;1.00;;;;;;6141725;23;20028;-80
2022/12/13 02:06:30;;;;;;;137.57;83.30;;;-4.00;99.90;;;;;;6134159;23;20018;-78
2022/12/13 02:08:58;;;;;;;152.65;90.97;;;-4.00;99.90;;;;;;6134342;23;20022;-77
2022/12/13 02:11:27;;;;;;;142.80;84.32;;;-3.90;99.90;;;;;;6134284;23;20018;-79
2022/12/13 02:13:54;;;;;;;142.23;85.57;;;-4.00;93.90;;;;;;6134470;23;20029;-79
2022/12/13 02:16:37;;;;;;;142.25;83.45;;;-3.90;99.90;;;;;;6134119;23;20089;-79
2022/12/13 02:19:46;;;;;;;142.02;85.35;;;-3.90;1.00;;;;;;6127697;23;20014;-79
2022/12/13 02:22:33;;;;;;;173.38;102.25;;;-3.90;1.00;;;;;;6134823;23;20029;-80
2022/12/13 02:25:28;;;;;;;172.05;104.88;;;-3.80;1.00;;;;;;6134380;23;20485;-79
2022/12/13 02:28:13;;;;;;;177.20;105.43;;;-3.80;50.30;;;;;;6116317;23;20109;-82
2022/12/13 02:30:45;;;;;;;165.93;96.45;;;-3.70;99.90;;;;;;6136358;23;20021;-84
2022/12/13 02:33:26;;;;;;;141.35;84.20;;;-3.70;99.90;;;;;;6136063;23;20390;-83
2022/12/13 02:36:04;;;;;;;132.10;79.97;;;-3.60;1.00;;;;;;6136377;23;20014;-83
2022/12/13 02:38:39;;;;;;;161.07;97.13;;;-3.60;1.00;;;;;;6136437;23;20072;-82
2022/12/13 02:41:14;;;;;;;174.07;104.45;;;-3.60;1.00;;;;;;6136594;23;20347;-82
2022/12/13 02:43:48;;;;;;;167.43;101.55;;;-3.50;1.00;;;;;;6136638;23;20038;-83
2022/12/13 02:46:20;;;;;;;169.57;101.90;;;-3.50;1.00;;;;;;6135968;23;20570;-83
2022/12/13 02:48:50;;;;;;;161.35;94.68;;;-3.50;1.00;;;;;;6135796;23;20085;-82
2022/12/13 02:51:19;;;;;;;173.65;101.18;;;-3.50;1.00;;;;;;6100539;23;20030;-84
2022/12/13 02:53:47;;;;;;;150.75;91.78;;;-3.50;1.00;;;;;;6099961;23;20041;-83
2022/12/13 02:56:14;;;;;;;158.95;93.47;;;-3.40;1.00;;;;;;6100275;23;20018;-84
2022/12/13 02:58:47;;;;;;;167.30;99.82;;;-3.50;99.90;;;;;;6136629;23;20037;-83
2022/12/13 03:01:41;;;;;;;152.25;91.47;;;-3.50;1.00;;;;;;6100416;23;20088;-81
2022/12/13 03:04:16;;;;;;;147.07;88.38;;;-3.60;1.00;;;;;;6099682;23;20018;-83
2022/12/13 03:06:54;;;;;;;118.55;72.13;;;-3.50;1.00;;;;;;6135363;23;20014;-84
2022/12/13 03:09:43;;;;;;;112.80;69.43;;;-3.40;1.00;;;;;;6135083;23;20018;-82
2022/12/13 03:15:16;;;;;;;130.95;81.45;;;-3.40;1.00;;;;;;6135246;23;20021;-82
2022/12/13 03:17:50;;;;;;;108.90;65.63;;;-3.30;1.00;;;;;;6099025;23;20049;-83
2022/12/13 03:20:22;;;;;;;110.13;68.22;;;-3.30;99.90;;;;;;6135476;23;20430;-82
2022/12/13 03:22:49;;;;;;;138.07;86.38;;;-3.40;99.90;;;;;;6135632;23;20440;-85
2022/12/13 03:25:16;;;;;;;141.57;87.43;;;-3.30;99.90;;;;;;6141763;23;20022;-83
2022/12/13 03:27:45;;;;;;;143.07;87.07;;;-3.40;99.90;;;;;;6125987;23;20033;-81
2022/12/13 03:30:14;;;;;;;149.05;93.38;;;-3.40;1.00;;;;;;6100473;23;20025;-81
2022/12/13 03:32:41;;;;;;;155.10;94.30;;;-3.40;1.00;;;;;;6100040;23;20084;-82
2022/12/13 03:35:11;;;;;;;164.52;97.65;;;-3.30;1.00;;;;;;6135461;23;20037;-83
2022/12/13 03:37:39;;;;;;;159.43;97.60;;;-3.30;1.00;;;;;;6135314;23;20077;-83
2022/12/13 03:40:07;;;;;;;160.98;96.80;;;-3.40;1.00;;;;;;6099819;23;20030;-82
2022/12/13 03:42:34;;;;;;;156.93;94.45;;;-3.30;1.00;;;;;;6099297;23;20049;-82
2022/12/13 03:45:02;;;;;;;147.73;89.28;;;-3.30;1.00;;;;;;6135469;23;20109;-82
2022/12/13 03:47:29;;;;;;;142.55;88.07;;;-3.30;1.00;;;;;;6136803;23;20014;-83
2022/12/13 03:49:56;;;;;;;137.52;82.40;;;-3.40;1.00;;;;;;6101222;23;20021;-82
2022/12/13 03:52:25;;;;;;;172.70;103.70;;;-3.40;1.00;;;;;;6100598;23;20434;-82
2022/12/13 03:54:53;;;;;;;158.38;95.85;;;-3.30;1.00;;;;;;6099816;23;20046;-82
2022/12/13 03:57:20;;;;;;;150.93;91.22;;;-3.30;1.00;;;;;;6135050;23;20443;-83
2022/12/13 03:59:48;;;;;;;177.60;103.45;;;-3.30;99.90;;;;;;6134936;23;20029;-82
2022/12/13 04:02:15;;;;;;;173.68;104.13;;;-3.30;1.00;;;;;;6102268;23;20022;-83
2022/12/13 04:04:43;;;;;;;164.13;100.07;;;-3.30;1.00;;;;;;6139414;23;20018;-83
2022/12/13 04:07:10;;;;;;;155.18;95.68;;;-3.20;1.00;;;;;;6101265;23;20023;-83
2022/12/13 04:09:39;;;;;;;139.27;84.50;;;-3.10;1.00;;;;;;6102664;23;20096;-82
2022/12/13 04:14:52;;;;;;;168.60;101.50;;;-3.20;99.90;;;;;;6139163;23;20025;-83
2022/12/13 04:17:20;;;;;;;127.57;78.20;;;-3.20;99.90;;;;;;6128514;23;20708;-84
2022/12/13 04:19:47;;;;;;;136.60;81.10;;;-3.20;99.90;;;;;;6099597;23;20575;-83
2022/12/13 04:22:14;;;;;;;156.80;86.25;;;-3.20;99.90;;;;;;6100727;23;20025;-80
2022/12/13 04:24:43;;;;;;;141.52;78.85;;;-3.30;1.00;;;;;;6100326;23;20018;-84
2022/12/13 04:27:11;;;;;;;129.05;75.15;;;-3.20;1.00;;;;;;6109474;23;20061;-83
2022/12/13 04:29:39;;;;;;;122.20;74.10;;;-3.30;1.00;;;;;;6136420;23;20457;-83
2022/12/13 04:32:06;;;;;;;141.07;80.03;;;-3.20;1.00;;;;;;6111977;23;20466;-83
2022/12/13 04:34:34;;;;;;;134.77;77.28;;;-3.10;1.00;;;;;;6137146;23;20013;-83
2022/12/13 04:37:01;;;;;;;129.13;71.20;;;-3.10;1.00;;;;;;6136960;23;20048;-83
2022/12/13 04:39:29;;;;;;;142.63;81.78;;;-3.00;1.00;;;;;;6136865;23;20045;-84
2022/12/13 04:41:58;;;;;;;140.45;80.25;;;-3.00;99.90;;;;;;6137272;23;20017;-83
2022/12/13 04:44:25;;;;;;;139.93;79.80;;;-3.10;99.90;;;;;;6101474;23;20454;-83
2022/12/13 04:46:53;;;;;;;128.20;76.78;;;-3.10;99.90;;;;;;6136184;23;20505;-84
2022/12/13 04:49:20;;;;;;;113.25;67.22;;;-3.10;1.00;;;;;;6101602;23;20039;-84
2022/12/13 04:51:48;;;;;;;126.80;77.03;;;-3.00;1.00;;;;;;6141451;23;20022;-82
2022/12/13 04:54:16;;;;;;;135.77;81.50;;;-3.00;1.00;;;;;;6139513;23;20014;-83
2022/12/13 04:56:43;;;;;;;129.45;77.50;;;-3.00;1.00;;;;;;6137435;23;20017;-83
2022/12/13 04:59:12;;;;;;;165.93;95.88;;;-3.00;99.90;;;;;;6102208;23;20057;-84
2022/12/13 05:01:39;;;;;;;144.88;83.93;;;-3.00;99.90;;;;;;6137573;23;20022;-83
2022/12/13 05:04:07;;;;;;;137.25;80.88;;;-3.00;1.00;;;;;;6100740;23;20024;-82
2022/12/13 05:06:34;;;;;;;138.52;80.65;;;-2.90;1.00;;;;;;6136345;23;20010;-81
2022/12/13 05:09:01;;;;;;;152.43;86.03;;;-2.80;1.00;;;;;;6136636;23;20088;-82
2022/12/13 05:11:29;;;;;;;142.60;80.60;;;-2.80;1.00;;;;;;6101863;23;20032;-83
2022/12/13 05:13:56;;;;;;;133.50;75.50;;;-2.80;99.90;;;;;;6141949;23;20029;-82
2022/12/13 05:16:25;;;;;;;120.80;72.22;;;-2.80;99.90;;;;;;6137564;23;20033;-81
2022/12/13 05:18:53;;;;;;;142.23;78.30;;;-2.80;99.90;;;;;;6139016;23;20363;-82
2022/12/13 05:21:20;;;;;;;138.20;76.72;;;-2.80;1.00;;;;;;6138660;23;20021;-82
2022/12/13 05:23:47;;;;;;;162.68;92.32;;;-2.80;1.00;;;;;;6140091;23;20017;-81
2022/12/13 05:26:14;;;;;;;166.48;92.90;;;-2.70;1.00;;;;;;6139988;23;20022;-83
2022/12/13 05:28:42;;;;;;;128.85;76.57;;;-2.70;1.00;;;;;;6144737;23;20018;-83
2022/12/13 05:31:11;;;;;;;148.73;84.38;;;-2.60;1.00;;;;;;6148274;23;20010;-82
2022/12/13 05:33:40;;;;;;;148.85;84.35;;;-2.60;99.90;;;;;;6121001;23;20006;-82
2022/12/13 05:36:08;;;;;;;131.10;77.18;;;-2.60;99.90;;;;;;6161588;23;20010;-83
2022/12/13 05:38:36;;;;;;;124.93;71.63;;;-2.60;99.90;;;;;;6156442;23;20052;-85
2022/12/13 05:41:03;;;;;;;126.32;72.43;;;-2.50;99.90;;;;;;6101298;23;20505;-83
2022/12/13 05:43:31;;;;;;;126.68;73.90;;;-2.50;99.90;;;;;;6137021;23;20072;-81
2022/12/13 05:45:58;;;;;;;132.45;78.43;;;-2.50;99.90;;;;;;6126813;23;20049;-82
2022/12/13 05:48:26;;;;;;;132.73;78.30;;;-2.50;77.50;;;;;;6100979;23;20069;-83
2022/12/13 05:50:54;;;;;;;132.35;78.65;;;-2.50;99.90;;;;;;6136501;23;20164;-83
2022/12/13 05:53:22;;;;;;;125.63;76.03;;;-2.50;99.90;;;;;;6136706;23;20033;-81
2022/12/13 05:55:49;;;;;;;136.80;81.60;;;-2.40;99.90;;;;;;6138452;23;20014;-83
2022/12/13 05:58:17;;;;;;;157.77;94.60;;;-2.40;99.90;;;;;;6101692;23;20470;-82
2022/12/13 06:00:44;;;;;;;158.57;90.35;;;-2.40;76.30;;;;;;6139688;23;20014;-81
2022/12/13 06:03:12;;;;;;;167.45;94.78;;;-2.40;99.90;;;;;;6101832;23;20018;-81
2022/12/13 06:05:39;;;;;;;195.20;107.82;;;-2.30;99.90;;;;;;6137487;23;20017;-82
2022/12/13 06:08:08;;;;;;;208.75;109.85;;;-2.30;90.30;;;;;;6137911;23;20065;-83
2022/12/13 06:10:35;;;;;;;198.48;101.68;;;-2.30;99.90;;;;;;6138025;23;20022;-82
2022/12/13 06:13:03;;;;;;;172.57;92.55;;;-2.20;10.20;;;;;;6142482;23;20021;-83
2022/12/13 06:15:31;;;;;;;131.63;79.10;;;-2.20;1.00;;;;;;6103059;23;20037;-83
2022/12/13 06:18:00;;;;;;;150.95;85.10;;;-2.20;1.00;;;;;;6140831;23;20014;-82
2022/12/13 06:20:27;;;;;;;151.82;87.45;;;-2.20;1.00;;;;;;6101088;23;20068;-83
2022/12/13 06:22:54;;;;;;;174.13;93.05;;;-2.20;1.00;;;;;;6137707;23;20029;-82
2022/12/13 06:25:23;;;;;;;197.32;106.63;;;-2.20;1.00;;;;;;6136845;23;20018;-82
2022/12/13 06:27:51;;;;;;;196.70;106.40;;;-2.20;1.00;;;;;;6136337;23;20038;-81
2022/12/13 06:30:18;;;;;;;175.82;97.00;;;-2.10;1.00;;;;;;6100736;23;20080;-81
2022/12/13 06:32:49;;;;;;;195.50;102.18;;;-2.10;1.00;;;;;;6136688;23;20018;-82
2022/12/13 06:35:16;;;;;;;205.13;106.03;;;-2.10;1.00;;;;;;6136937;23;20013;-81
2022/12/13 06:37:44;;;;;;;227.48;113.38;;;-2.10;1.00;;;;;;6126900;23;20022;-82
2022/12/13 06:40:12;;;;;;;225.35;116.72;;;-2.00;1.00;;;;;;6136552;23;20024;-82
2022/12/13 06:42:41;;;;;;;175.55;100.82;;;-2.00;1.00;;;;;;6136469;23;20502;-83
2022/12/13 06:45:09;;;;;;;193.45;106.85;;;-2.00;1.00;;;;;;6136978;23;20045;-81
2022/12/13 06:47:36;;;;;;;169.80;97.53;;;-2.10;1.00;;;;;;6137051;23;20037;-82
2022/12/13 06:50:04;;;;;;;187.40;104.78;;;-2.10;1.00;;;;;;6136760;23;20030;-81
2022/12/13 06:52:31;;;;;;;201.25;110.72;;;-2.10;1.00;;;;;;6101624;23;20025;-81
2022/12/13 06:54:59;;;;;;;198.48;108.93;;;-2.00;61.00;;;;;;6137393;23;20451;-80
2022/12/13 06:57:27;;;;;;;224.23;122.10;;;-1.90;99.90;;;;;;6102022;23;20069;-82
2022/12/13 06:59:56;;;;;;;288.10;157.27;;;-1.80;14.80;;;;;;6138394;23;20048;-83
2022/12/13 07:02:23;;;;;;;352.50;192.15;;;-1.90;1.00;;;;;;6106476;23;20046;-83
2022/12/13 07:04:50;;;;;;;374.45;204.07;;;-1.90;1.00;;;;;;6140049;23;20080;-81
2022/12/13 07:07:18;;;;;;;268.23;144.00;;;-1.90;1.00;;;;;;6101748;23;20349;-82
2022/12/13 07:09:46;;;;;;;273.15;146.75;;;-1.90;1.00;;;;;;6143830;23;20018;-81
2022/12/13 07:12:14;;;;;;;318.35;160.60;;;-1.80;1.00;;;;;;6143961;23;20040;-82
2022/12/13 07:14:41;;;;;;;316.63;167.30;;;-1.80;1.00;;;;;;6144024;23;20049;-81
2022/12/13 07:17:10;;;;;;;328.83;162.00;;;-1.80;1.00;;;;;;6139773;23;20485;-82
2022/12/13 07:19:38;;;;;;;299.80;161.80;;;-1.70;1.00;;;;;;6127711;23;20025;-82
2022/12/13 07:22:06;;;;;;;302.80;160.75;;;-1.60;1.00;;;;;;6137059;23;20017;-82
2022/12/13 07:24:34;;;;;;;286.83;148.30;;;-1.60;1.00;;;;;;6137694;23;20037;-83
2022/12/13 07:27:02;;;;;;;278.40;136.50;;;-1.50;1.00;;;;;;6100612;23;20057;-79
2022/12/13 07:29:31;;;;;;;282.23;139.13;;;-1.40;1.00;;;;;;6101154;23;20057;-83
2022/12/13 07:31:59;;;;;;;229.13;110.57;;;-1.20;1.00;;;;;;6101651;23;20419;-85
2022/12/13 07:34:27;;;;;;;244.27;117.88;;;-1.10;1.00;;;;;;6138131;23;20037;-83
2022/12/13 07:36:55;;;;;;;257.92;124.30;;;-1.20;99.90;;;;;;6135856;23;20025;-83
2022/12/13 07:39:25;;;;;;;255.23;126.07;;;-1.10;99.90;;;;;;6136335;23;20014;-83
2022/12/13 07:41:55;;;;;;;275.05;135.15;;;-1.00;99.90;;;;;;6127859;23;20025;-83
2022/12/13 07:44:23;;;;;;;233.52;115.97;;;-1.00;99.90;;;;;;6139439;23;20017;-84
2022/12/13 07:46:51;;;;;;;254.88;122.95;;;-0.90;99.90;;;;;;6128700;23;20033;-84
2022/12/13 07:49:18;;;;;;;234.35;116.82;;;-0.90;1.00;;;;;;6141690;23;20244;-84
2022/12/13 07:51:49;;;;;;;239.40;120.70;;;-0.70;82.50;;;;;;6138525;23;20022;-83
2022/12/13 07:54:17;;;;;;;226.45;110.32;;;-0.60;1.00;;;;;;6142849;23;20010;-83
2022/12/13 07:56:44;;;;;;;216.70;109.53;;;-0.50;1.00;;;;;;6145066;23;20073;-85
2022/12/13 07:59:13;;;;;;;192.73;101.40;;;-0.40;1.00;;;;;;6107423;23;20018;-82
2022/12/13 08:01:40;;;;;;;190.63;97.15;;;-0.30;1.00;;;;;;6104677;23;20022;-83
2022/12/13 08:04:09;;;;;;;209.90;109.25;;;-0.30;1.00;;;;;;6143618;23;20105;-84
2022/12/13 08:06:38;;;;;;;206.52;108.25;;;-0.40;1.00;;;;;;6143431;23;20069;-84
2022/12/13 08:09:07;;;;;;;218.52;113.55;;;-0.30;1.00;;;;;;6107311;23;20018;-82
2022/12/13 08:11:35;;;;;;;209.15;111.55;;;-0.30;1.00;;;;;;6106561;23;20033;-83
2022/12/13 08:14:02;;;;;;;212.05;110.55;;;-0.20;1.00;;;;;;6103652;23;20049;-82
2022/12/13 08:16:30;;;;;;;203.75;110.03;;;0.00;1.00;;;;;;6142540;23;20014;-82
2022/12/13 08:18:58;;;;;;;210.40;111.05;;;0.00;1.00;;;;;;6107531;23;20022;-83
2022/12/13 08:21:26;;;;;;;212.40;109.05;;;0.20;1.00;;;;;;6133711;23;20026;-82
2022/12/13 08:23:54;;;;;;;200.02;103.85;;;0.20;99.90;;;;;;6110961;23;20022;-82
2022/12/13 08:26:23;;;;;;;214.25;112.88;;;0.20;99.90;;;;;;6093817;23;20030;-82
2022/12/13 08:28:51;;;;;;;198.70;106.90;;;0.30;99.90;;;;;;6156892;23;20010;-77
2022/12/13 08:31:18;;;;;;;177.70;97.25;;;0.50;1.00;;;;;;6167716;23;20088;-78
2022/12/13 08:33:47;;;;;;;185.40;98.18;;;0.60;99.90;;;;;;6166608;23;20015;-79
2022/12/13 08:36:17;;;;;;;179.30;96.32;;;0.70;99.90;;;;;;6165535;23;20461;-80
2022/12/13 08:38:45;;;;;;;170.82;96.80;;;0.70;99.90;;;;;;6129145;23;20022;-79
2022/12/13 08:41:12;;;;;;;185.65;100.55;;;0.70;66.00;;;;;;6164986;23;20017;-79
2022/12/13 08:43:42;;;;;;;197.60;103.30;;;0.70;99.90;;;;;;6165046;23;20096;-78
2022/12/13 08:46:10;;;;;;;186.02;103.20;;;0.60;99.90;;;;;;6128948;23;20033;-79
2022/12/13 08:48:37;;;;;;;200.27;104.55;;;0.70;99.90;;;;;;6164458;23;20013;-77
2022/12/13 08:51:06;;;;;;;196.15;103.85;;;1.00;99.90;;;;;;6164488;23;20085;-80
2022/12/13 08:53:34;;;;;;;197.48;102.53;;;1.20;99.90;;;;;;6165311;23;20054;-80
2022/12/13 08:56:06;;;;;;;193.75;101.63;;;1.40;1.00;;;;;;6154854;23;20024;-80
2022/12/13 08:58:33;;;;;;;225.20;110.45;;;1.50;1.00;;;;;;6165272;23;20342;-79
2022/12/13 09:01:06;;;;;;;212.10;108.80;;;1.70;1.00;;;;;;6129757;23;20089;-79
2022/12/13 09:03:33;;;;;;;211.82;109.85;;;1.80;1.00;;;;;;6166570;23;20022;-79
2022/12/13 09:06:07;;;;;;;243.23;115.90;;;1.80;1.00;;;;;;6165668;23;20017;-79
2022/12/13 09:08:34;;;;;;;215.23;109.10;;;1.90;1.00;;;;;;6165872;23;20453;-78
2022/12/13 09:11:02;;;;;;;222.68;112.07;;;2.00;1.00;;;;;;6165033;23;20422;-79
2022/12/13 09:13:31;;;;;;;237.27;114.60;;;2.00;1.00;;;;;;6165034;23;20427;-79
2022/12/13 09:15:59;;;;;;;224.55;110.05;;;2.00;1.00;;;;;;6164446;23;20039;-79
2022/12/13 09:18:27;;;;;;;217.30;111.47;;;2.00;1.00;;;;;;6164099;23;20033;-77
2022/12/13 09:20:55;;;;;;;223.82;112.65;;;2.10;1.00;;;;;;6165164;23;20454;-78
2022/12/13 09:23:23;;;;;;;215.40;107.38;;;2.00;1.00;;;;;;6165072;23;20100;-80
2022/12/13 09:25:55;;;;;;;202.38;104.20;;;2.10;1.00;;;;;;6165066;23;20040;-79
2022/12/13 09:28:23;;;;;;;196.57;100.57;;;2.10;1.00;;;;;;6165583;23;20087;-78
2022/12/13 09:30:50;;;;;;;183.20;95.97;;;2.10;1.00;;;;;;6171431;23;20017;-80
2022/12/13 09:33:17;;;;;;;177.32;94.05;;;2.20;1.00;;;;;;6170099;23;20040;-79
2022/12/13 09:35:48;;;;;;;189.95;95.00;;;2.10;1.00;;;;;;6165185;23;20046;-78
2022/12/13 09:38:15;;;;;;;178.00;91.63;;;2.30;1.00;;;;;;6165088;23;20021;-78
2022/12/13 09:40:45;;;;;;;159.43;86.00;;;2.50;1.00;;;;;;6128438;23;20292;-79
2022/12/13 09:43:20;;;;;;;183.35;94.13;;;2.70;99.90;;;;;;6164694;23;20229;-77
2022/12/13 09:45:49;;;;;;;179.67;92.10;;;2.90;99.90;;;;;;6164797;23;20014;-78
2022/12/13 09:48:18;;;;;;;175.23;91.55;;;3.10;99.90;;;;;;6164207;23;20067;-79
2022/12/13 09:50:47;;;;;;;167.90;89.55;;;3.30;99.90;;;;;;6164486;23;20025;-78
2022/12/13 09:53:18;;;;;;;169.60;92.60;;;3.30;29.80;;;;;;6164283;23;20044;-77
2022/12/13 09:55:48;;;;;;;168.93;87.10;;;3.40;1.00;;;;;;6164077;23;20025;-78
2022/12/13 09:58:20;;;;;;;167.38;85.28;;;3.50;1.00;;;;;;6165530;23;20017;-79
2022/12/13 10:00:49;;;;;;;158.18;85.78;;;3.40;1.00;;;;;;6170411;23;20017;-79
2022/12/13 10:03:18;;;;;;;165.48;90.60;;;3.50;1.00;;;;;;6171182;23;20017;-80
2022/12/13 10:05:56;;;;;;;179.60;95.22;;;3.70;1.00;;;;;;6171195;23;20342;-77
2022/12/13 10:08:27;;;;;;;160.88;90.15;;;3.70;1.00;;;;;;6133593;23;20092;-77
2022/12/13 10:10:54;;;;;;;167.52;92.80;;;3.80;1.00;;;;;;6166218;23;20020;-78
2022/12/13 10:13:26;;;;;;;169.00;91.00;;;3.80;1.00;;;;;;6164618;23;20088;-79
2022/12/13 10:15:58;;;;;;;164.77;93.45;;;3.70;1.00;;;;;;6163605;23;20033;-77
2022/12/13 10:18:34;;;;;;;160.50;88.95;;;3.70;1.00;;;;;;6164222;23;20345;-79
2022/12/13 10:21:05;;;;;;;150.27;84.05;;;3.50;1.00;;;;;;6165030;23;20129;-77
2022/12/13 10:23:33;;;;;;;151.23;84.63;;;3.50;1.00;;;;;;6164592;23;20013;-79
2022/12/13 10:26:01;;;;;;;105.93;62.00;;;3.40;1.00;;;;;;6164228;23;20014;-77
2022/12/13 10:28:32;;;;;;;140.15;75.13;;;3.10;1.00;;;;;;6165983;23;20021;-77
2022/12/13 10:31:09;;;;;;;97.43;55.30;;;3.20;1.00;;;;;;6168918;23;20025;-87
2022/12/13 10:33:39;;;;;;;85.57;51.33;;;3.10;1.00;;;;;;6140957;23;20060;-85
2022/12/13 10:36:15;;;;;;;87.28;48.97;;;2.90;1.00;;;;;;6166117;23;20084;-78
2022/12/13 10:38:45;;;;;;;70.82;41.45;;;2.90;1.00;;;;;;6143770;23;20037;-83
2022/12/13 10:41:31;;;;;;;73.18;42.03;;;2.80;1.00;;;;;;6175221;23;20343;-83
2022/12/13 10:44:24;;;;;;;79.78;42.50;;;3.00;1.00;;;;;;6169724;23;20021;-83
2022/12/13 10:47:05;;;;;;;57.47;32.95;;;3.00;1.00;;;;;;6134741;23;20013;-82
2022/12/13 10:49:39;;;;;;;43.92;24.48;;;3.20;1.00;;;;;;6173608;23;20442;-76
2022/12/13 10:52:23;;;;;;;51.35;28.05;;;3.30;1.00;;;;;;6171594;23;20457;-78
2022/12/13 10:54:51;;;;;;;40.55;23.25;;;3.40;1.00;;;;;;6164394;23;20010;-79
2022/12/13 10:57:19;;;;;;;47.30;28.23;;;3.70;1.00;;;;;;6163875;23;20068;-77
2022/12/13 10:59:49;;;;;;;42.17;24.60;;;3.60;99.90;;;;;;6127927;23;20032;-77
2022/12/13 11:02:34;;;;;;;44.05;23.27;;;3.60;99.90;;;;;;6164594;23;20036;-78
2022/12/13 11:05:24;;;;;;;39.42;22.65;;;3.60;99.90;;;;;;6164484;23;20017;-78
2022/12/13 11:07:54;;;;;;;37.38;21.10;;;3.80;99.90;;;;;;6163788;23;20037;-78
2022/12/13 11:10:24;;;;;;;44.85;25.20;;;3.80;99.90;;;;;;6163750;23;20009;-77
2022/12/13 11:12:59;;;;;;;43.85;22.77;;;3.70;99.90;;;;;;6163880;23;20017;-77
2022/12/13 11:15:28;;;;;;;41.45;20.67;;;3.70;99.90;;;;;;6164123;23;20020;-78
2022/12/13 11:17:58;;;;;;;40.50;21.17;;;3.80;99.90;;;;;;6163667;23;20072;-77
2022/12/13 11:20:30;;;;;;;34.33;20.10;;;4.00;99.90;;;;;;6162902;23;20750;-77
2022/12/13 11:23:04;;;;;;;25.55;14.90;;;4.10;99.90;;;;;;6163179;23;20033;-78
2022/12/13 11:25:37;;;;;;;27.38;14.43;;;4.10;99.90;;;;;;6163307;23;20017;-79
2022/12/13 11:28:18;;;;;;;23.45;12.13;;;4.30;79.60;;;;;;6163796;23;20013;-77
2022/12/13 11:30:53;;;;;;;27.10;14.77;;;4.40;31.90;;;;;;6163226;23;20017;-78
2022/12/13 11:33:28;;;;;;;28.38;16.77;;;4.30;15.00;;;;;;6165108;23;20508;-80
2022/12/13 11:36:05;;;;;;;20.38;11.98;;;4.30;13.40;;;;;;6136572;23;20021;-78
2022/12/13 11:38:40;;;;;;;17.55;11.30;;;4.30;1.00;;;;;;6172310;23;20014;-79
2022/12/13 11:41:14;;;;;;;21.15;12.77;;;4.40;1.00;;;;;;6173410;23;20016;-78
2022/12/13 11:43:47;;;;;;;22.80;13.23;;;4.60;1.00;;;;;;6167973;23;20017;-78
2022/12/13 11:46:17;;;;;;;23.58;13.73;;;4.80;1.00;;;;;;6127917;23;20358;-77
2022/12/13 11:48:51;;;;;;;25.35;14.90;;;4.70;1.00;;;;;;6163990;23;20101;-79
2022/12/13 11:51:24;;;;;;;24.20;14.65;;;4.80;1.00;;;;;;6164082;23;20084;-78
2022/12/13 11:53:58;;;;;;;25.17;14.65;;;4.70;1.00;;;;;;6164711;23;20105;-76
2022/12/13 11:56:28;;;;;;;18.40;10.90;;;4.60;1.00;;;;;;6164649;23;20025;-78
2022/12/13 11:59:06;;;;;;;24.35;10.75;;;4.40;1.00;;;;;;6163328;23;20017;-79
2022/12/13 12:01:41;;;;;;;24.95;11.77;;;4.20;1.00;;;;;;6128309;23;20040;-77
2022/12/13 12:04:19;;;;;;;23.00;12.75;;;4.20;1.00;;;;;;6164584;23;20022;-76
2022/12/13 12:06:51;;;;;;;21.00;11.23;;;4.10;1.00;;;;;;6170919;23;20025;-77
2022/12/13 12:09:24;;;;;;;21.67;12.70;;;4.10;1.00;;;;;;6181010;23;20028;-76
2022/12/13 12:11:58;;;;;;;27.75;15.38;;;4.10;1.00;;;;;;6131066;23;20025;-78
2022/12/13 12:14:37;;;;;;;23.98;12.80;;;4.20;1.00;;;;;;6163473;23;20014;-77
2022/12/13 12:17:05;;;;;;;26.27;14.35;;;4.30;1.00;;;;;;6162908;23;20022;-77
2022/12/13 12:19:38;;;;;;;21.35;11.15;;;4.10;1.00;;;;;;6164633;23;20607;-79
2022/12/13 12:22:19;;;;;;;25.23;12.45;;;4.30;1.00;;;;;;6164537;23;20096;-77
2022/12/13 12:25:10;;;;;;;27.00;14.27;;;4.20;1.00;;;;;;6162797;23;20068;-76
2022/12/13 12:27:45;;;;;;;29.13;17.60;;;4.10;1.00;;;;;;6161928;23;20334;-76
2022/12/13 12:30:21;;;;;;;38.23;21.57;;;4.10;1.00;;;;;;6163092;23;20419;-77
2022/12/13 12:32:54;;;;;;;37.28;21.23;;;4.10;1.00;;;;;;6163235;23;20084;-77
2022/12/13 12:35:42;;;;;;;23.95;14.80;;;4.20;1.00;;;;;;6163226;23;20009;-76
2022/12/13 12:38:22;;;;;;;24.02;14.13;;;4.10;1.00;;;;;;6123011;23;20053;-77
2022/12/13 12:41:17;;;;;;;22.25;13.50;;;4.00;1.00;;;;;;6162995;23;20465;-78
2022/12/13 12:43:45;;;;;;;21.35;11.98;;;4.00;1.00;;;;;;6162587;23;20025;-77
2022/12/13 12:46:35;;;;;;;17.90;11.18;;;4.00;1.00;;;;;;6162273;23;20473;-76
2022/12/13 12:49:34;;;;;;;20.17;12.05;;;3.80;1.00;;;;;;6161806;23;20014;-76